createdAt,value
2023-01-05T00:01:47.626Z,36.93
2023-01-05T00:04:17.597Z,36.83
2023-01-05T00:06:46.408Z,38.33
2023-01-05T00:09:17.250Z,36.70
2023-01-05T00:12:03.496Z,37.90
2023-01-05T00:14:50.738Z,38.23
2023-01-05T00:17:39.000Z,37.37
2023-01-05T00:20:32.596Z,38.07
2023-01-05T00:23:01.058Z,37.23
2023-01-05T00:25:31.241Z,39.07
2023-01-05T00:27:59.630Z,38.70
2023-01-05T00:30:31.453Z,47.70
2023-01-05T00:33:00.118Z,45.43
2023-01-05T00:35:31.037Z,42.27
2023-01-05T00:37:59.346Z,38.07
2023-01-05T00:40:27.710Z,36.27
2023-01-05T00:42:56.004Z,35.03
2023-01-05T00:45:24.305Z,34.00
2023-01-05T00:47:54.273Z,36.37
2023-01-05T00:50:23.997Z,35.57
2023-01-05T00:52:53.707Z,34.57
2023-01-05T00:55:22.068Z,36.60
2023-01-05T00:57:50.415Z,34.30
2023-01-05T01:00:20.553Z,34.30
2023-01-05T01:02:49.097Z,33.30
2023-01-05T01:05:17.660Z,32.77
2023-01-05T01:07:46.006Z,32.60
2023-01-05T01:10:16.001Z,31.27
2023-01-05T01:12:44.234Z,31.07
2023-01-05T01:15:12.755Z,29.47
2023-01-05T01:17:41.257Z,28.63
2023-01-05T01:20:10.962Z,28.53
2023-01-05T01:22:39.432Z,27.30
2023-01-05T01:25:08.355Z,27.77
2023-01-05T01:27:38.050Z,26.30
2023-01-05T01:30:07.623Z,27.00
2023-01-05T01:32:35.958Z,27.07
2023-01-05T01:35:04.405Z,29.60
2023-01-05T01:37:32.732Z,28.33
2023-01-05T01:40:01.152Z,30.53
2023-01-05T01:42:29.520Z,29.93
2023-01-05T01:45:01.587Z,30.17
2023-01-05T01:47:37.896Z,29.87
2023-01-05T01:50:11.898Z,30.33
2023-01-05T01:52:41.641Z,30.20
2023-01-05T01:55:10.752Z,32.43
2023-01-05T01:57:40.635Z,31.57
2023-01-05T02:00:14.929Z,32.23
2023-01-05T02:02:43.397Z,31.67
2023-01-05T02:05:14.072Z,28.80
2023-01-05T02:07:47.650Z,28.83
2023-01-05T02:10:19.585Z,28.47
2023-01-05T02:13:03.278Z,26.77
2023-01-05T02:15:43.631Z,26.27
2023-01-05T02:18:26.785Z,28.00
2023-01-05T02:21:04.262Z,30.23
2023-01-05T02:24:02.753Z,27.83
2023-01-05T02:27:00.734Z,26.07
2023-01-05T02:30:01.431Z,25.13
2023-01-05T02:32:37.989Z,24.17
2023-01-05T02:35:14.977Z,23.43
2023-01-05T02:37:47.960Z,23.40
2023-01-05T02:40:21.964Z,23.80
2023-01-05T02:42:53.514Z,23.97
2023-01-05T02:45:24.285Z,24.03
2023-01-05T02:47:54.005Z,23.27
2023-01-05T02:50:26.881Z,23.73
2023-01-05T02:53:02.044Z,21.90
2023-01-05T02:55:36.790Z,20.93
2023-01-05T02:58:12.060Z,21.37
2023-01-05T03:00:45.707Z,21.20
2023-01-05T03:03:19.680Z,21.80
2023-01-05T03:05:53.643Z,21.57
2023-01-05T03:08:29.299Z,22.33
2023-01-05T03:11:23.448Z,21.03
2023-01-05T03:13:57.203Z,22.07
2023-01-05T03:16:30.344Z,22.30
2023-01-05T03:19:20.469Z,21.17
2023-01-05T03:22:08.616Z,21.20
2023-01-05T03:24:56.407Z,23.30
2023-01-05T03:27:43.422Z,23.07
2023-01-05T03:30:31.639Z,22.07
2023-01-05T03:33:23.655Z,23.63
2023-01-05T03:35:58.935Z,27.57
2023-01-05T03:38:32.878Z,27.13
2023-01-05T03:41:04.185Z,26.57
2023-01-05T03:43:36.126Z,27.90
2023-01-05T03:46:11.696Z,27.20
2023-01-05T03:48:40.204Z,26.23
2023-01-05T03:51:10.471Z,25.87
2023-01-05T03:53:38.962Z,26.27
2023-01-05T03:56:07.791Z,25.80
2023-01-05T03:58:36.138Z,24.93
2023-01-05T04:01:04.552Z,25.60
2023-01-05T04:03:32.928Z,26.20
2023-01-05T04:06:01.755Z,26.73
2023-01-05T04:08:31.659Z,25.53
2023-01-05T04:11:12.704Z,26.23
2023-01-05T04:13:41.162Z,25.20
2023-01-05T04:16:09.597Z,24.60
2023-01-05T04:18:38.292Z,25.20
2023-01-05T04:21:07.515Z,24.47
2023-01-05T04:23:37.692Z,24.60
2023-01-05T04:26:06.543Z,24.60
2023-01-05T04:28:34.876Z,24.10
2023-01-05T04:31:03.203Z,24.83
2023-01-05T04:33:31.698Z,23.60
2023-01-05T04:36:00.116Z,23.70
2023-01-05T04:38:28.502Z,23.30
2023-01-05T04:40:58.138Z,23.87
2023-01-05T04:43:26.443Z,23.90
2023-01-05T04:45:54.821Z,23.60
2023-01-05T04:48:23.118Z,23.37
2023-01-05T04:50:54.578Z,24.27
2023-01-05T04:53:23.732Z,23.13
2023-01-05T04:55:52.453Z,23.07
2023-01-05T04:58:22.584Z,24.90
2023-01-05T05:00:51.460Z,24.97
2023-01-05T05:03:19.783Z,23.53
2023-01-05T05:05:48.160Z,25.43
2023-01-05T05:08:16.464Z,25.30
2023-01-05T05:10:44.789Z,25.03
2023-01-05T05:13:13.088Z,24.70
2023-01-05T05:15:42.856Z,24.43
2023-01-05T05:18:11.177Z,24.87
2023-01-05T05:20:41.934Z,24.27
2023-01-05T05:23:10.218Z,23.63
2023-01-05T05:25:38.597Z,23.53
2023-01-05T05:28:07.160Z,22.20
2023-01-05T05:30:35.739Z,23.53
2023-01-05T05:33:05.582Z,22.33
2023-01-05T05:35:33.843Z,22.03
2023-01-05T05:38:02.269Z,20.93
2023-01-05T05:40:30.548Z,20.93
2023-01-05T05:42:58.888Z,19.63
2023-01-05T05:45:27.579Z,19.00
2023-01-05T05:47:55.842Z,18.90
2023-01-05T05:50:25.678Z,17.43
2023-01-05T05:52:54.225Z,16.77
2023-01-05T05:55:22.540Z,16.57
2023-01-05T05:57:50.837Z,17.07
2023-01-05T06:00:19.675Z,16.10
2023-01-05T06:02:48.034Z,15.60
2023-01-05T06:05:16.739Z,15.50
2023-01-05T06:07:46.453Z,14.93
2023-01-05T06:10:14.855Z,14.77
2023-01-05T06:12:43.309Z,14.70
2023-01-05T06:15:12.381Z,13.80
2023-01-05T06:17:40.815Z,14.00
2023-01-05T06:20:10.677Z,13.70
2023-01-05T06:22:39.514Z,13.63
2023-01-05T06:25:10.325Z,13.60
2023-01-05T06:27:38.782Z,12.03
2023-01-05T06:30:08.803Z,13.83
2023-01-05T06:32:37.252Z,13.77
2023-01-05T06:35:06.156Z,13.63
2023-01-05T06:37:34.511Z,13.70
2023-01-05T06:40:02.790Z,13.93
2023-01-05T06:42:33.256Z,13.37
2023-01-05T06:45:01.548Z,14.23
2023-01-05T06:47:30.076Z,13.77
2023-01-05T06:49:58.469Z,14.47
2023-01-05T06:52:26.810Z,13.67
2023-01-05T06:54:55.084Z,15.00
2023-01-05T06:57:24.407Z,14.33
2023-01-05T06:59:54.053Z,13.90
2023-01-05T07:02:22.461Z,14.10
2023-01-05T07:04:50.871Z,13.70
2023-01-05T07:07:19.138Z,14.10
2023-01-05T07:09:49.734Z,13.87
2023-01-05T07:12:18.199Z,13.57
2023-01-05T07:14:46.552Z,14.47
2023-01-05T07:17:16.191Z,14.43
2023-01-05T07:19:44.533Z,15.03
2023-01-05T07:22:12.861Z,14.27
2023-01-05T07:24:41.190Z,13.93
2023-01-05T07:27:10.159Z,13.17
2023-01-05T07:29:38.631Z,15.00
2023-01-05T07:32:07.313Z,16.40
2023-01-05T07:34:37.334Z,17.77
2023-01-05T07:37:05.852Z,17.90
2023-01-05T07:39:34.219Z,19.13
2023-01-05T07:42:02.473Z,18.80
2023-01-05T07:44:30.779Z,19.87
2023-01-05T07:46:59.692Z,19.20
2023-01-05T07:49:28.360Z,19.90
2023-01-05T07:51:58.250Z,20.33
2023-01-05T07:54:27.545Z,21.47
2023-01-05T07:56:55.901Z,20.33
2023-01-05T07:59:24.241Z,17.70
2023-01-05T08:01:52.824Z,16.00
2023-01-05T08:04:21.374Z,13.03
2023-01-05T08:06:49.677Z,12.47
2023-01-05T08:09:36.900Z,13.17
2023-01-05T08:12:05.468Z,14.00
2023-01-05T08:14:34.033Z,12.30
2023-01-05T08:17:02.485Z,11.90
2023-01-05T08:19:30.813Z,12.57
2023-01-05T08:21:59.127Z,11.53
2023-01-05T08:24:28.809Z,11.50
2023-01-05T08:26:57.302Z,11.77
2023-01-05T08:29:25.665Z,12.10
2023-01-05T08:31:54.239Z,12.50
2023-01-05T08:34:22.557Z,13.13
2023-01-05T08:36:50.892Z,12.57
2023-01-05T08:39:19.233Z,12.80
2023-01-05T08:41:48.995Z,13.17
2023-01-05T08:44:17.433Z,12.77
2023-01-05T08:46:45.797Z,12.97
2023-01-05T08:49:14.281Z,16.77
2023-01-05T08:51:42.604Z,21.00
2023-01-05T08:54:10.972Z,20.40
2023-01-05T08:56:39.705Z,19.73
2023-01-05T08:59:12.864Z,18.67
2023-01-05T09:01:41.549Z,18.83
2023-01-05T09:04:10.094Z,15.27
2023-01-05T09:06:38.395Z,12.93
2023-01-05T09:09:08.787Z,11.53
2023-01-05T09:11:37.407Z,9.27
2023-01-05T09:14:05.810Z,8.63
2023-01-05T09:19:25.171Z,8.70
2023-01-05T09:21:54.247Z,9.27
2023-01-05T09:24:22.900Z,9.47
2023-01-05T09:26:51.634Z,10.30
2023-01-05T09:29:20.276Z,11.90
2023-01-05T09:31:50.122Z,13.90
2023-01-05T09:34:19.378Z,12.00
2023-01-05T09:36:47.795Z,14.20
2023-01-05T09:39:16.324Z,13.20
2023-01-05T09:41:48.165Z,12.83
2023-01-05T09:44:26.636Z,13.57
2023-01-05T09:47:01.216Z,14.07
2023-01-05T09:49:32.617Z,12.50
2023-01-05T09:52:03.389Z,13.73
2023-01-05T09:54:34.974Z,14.90
2023-01-05T09:57:09.834Z,12.83
2023-01-05T09:59:40.550Z,12.40
2023-01-05T10:02:30.887Z,11.60
2023-01-05T10:05:00.445Z,12.30
2023-01-05T10:07:40.829Z,10.30
2023-01-05T10:10:22.410Z,11.63
2023-01-05T10:13:04.213Z,10.97
2023-01-05T10:15:37.832Z,12.10
2023-01-05T10:18:14.073Z,11.37
2023-01-05T10:20:51.678Z,11.47
2023-01-05T10:23:43.199Z,9.93
2023-01-05T10:26:18.254Z,11.87
2023-01-05T10:28:52.565Z,10.90
2023-01-05T10:31:25.365Z,10.20
2023-01-05T10:34:05.964Z,10.90
2023-01-05T10:37:09.471Z,10.23
2023-01-05T10:40:01.403Z,10.20
2023-01-05T10:42:53.668Z,9.80
2023-01-05T10:45:22.895Z,10.47
2023-01-05T10:47:51.747Z,10.63
2023-01-05T10:50:34.946Z,10.83
2023-01-05T10:53:09.387Z,10.33
2023-01-05T10:55:51.823Z,10.50
2023-01-05T10:58:25.263Z,12.00
2023-01-05T11:00:56.827Z,15.67
2023-01-05T11:04:14.974Z,20.97
2023-01-05T11:06:30.259Z,16.07
2023-01-05T11:09:08.238Z,14.00
2023-01-05T11:11:36.687Z,13.23
2023-01-05T11:14:07.779Z,11.53
2023-01-05T11:16:38.367Z,12.30
2023-01-05T11:19:14.182Z,13.60
2023-01-05T11:21:45.983Z,17.80
2023-01-05T11:24:30.975Z,21.83
2023-01-05T11:27:01.721Z,14.93
2023-01-05T11:29:30.786Z,22.47
2023-01-05T11:32:01.246Z,40.00
2023-01-05T11:34:40.493Z,45.03
2023-01-05T11:37:23.596Z,39.17
2023-01-05T11:39:54.467Z,21.33
2023-01-05T11:42:30.977Z,36.87
2023-01-05T11:45:00.888Z,24.00
2023-01-05T11:47:36.633Z,16.37
2023-01-05T11:50:21.821Z,12.20
2023-01-05T11:52:54.019Z,9.50
2023-01-05T11:55:36.548Z,9.03
2023-01-05T11:58:24.598Z,10.17
2023-01-05T12:01:27.752Z,9.97
2023-01-05T12:04:21.662Z,11.63
2023-01-05T12:07:20.272Z,10.80
2023-01-05T12:09:58.155Z,9.73
2023-01-05T12:12:45.293Z,8.90
2023-01-05T12:15:38.931Z,7.60
2023-01-05T12:18:23.468Z,7.10
2023-01-05T12:20:58.163Z,7.00
2023-01-05T12:23:47.715Z,6.73
2023-01-05T12:26:24.570Z,7.03
2023-01-05T12:30:29.600Z,7.30
2023-01-05T12:35:38.594Z,7.63
2023-01-05T12:38:25.836Z,7.80
2023-01-05T12:41:38.153Z,8.17
2023-01-05T12:44:39.054Z,7.70
2023-01-05T12:47:34.147Z,7.63
2023-01-05T12:50:14.424Z,11.40
2023-01-05T12:52:47.586Z,10.80
2023-01-05T12:58:28.685Z,12.17
2023-01-05T13:00:58.728Z,11.53
2023-01-05T13:03:31.754Z,10.63
2023-01-05T13:06:05.788Z,9.63
2023-01-05T13:08:40.212Z,9.10
2023-01-05T13:11:14.738Z,10.10
2023-01-05T13:13:48.557Z,10.13
2023-01-05T13:16:22.615Z,8.23
2023-01-05T13:18:56.936Z,8.67
2023-01-05T13:21:26.794Z,8.27
2023-01-05T13:23:59.520Z,9.93
2023-01-05T13:26:30.356Z,8.83
2023-01-05T13:29:04.762Z,9.63
2023-01-05T13:31:50.118Z,9.83
2023-01-05T13:34:46.585Z,8.40
2023-01-05T13:38:05.636Z,7.90
2023-01-05T13:40:50.727Z,8.43
2023-01-05T13:44:03.842Z,8.23
2023-01-05T13:46:55.792Z,10.47
2023-01-05T13:49:53.265Z,11.37
2023-01-05T13:52:32.009Z,12.50
2023-01-05T13:55:04.927Z,9.53
2023-01-05T13:57:39.977Z,11.20
2023-01-05T14:00:21.471Z,11.37
2023-01-05T14:03:01.503Z,9.57
2023-01-05T14:05:33.355Z,9.30
2023-01-05T14:08:07.168Z,8.67
2023-01-05T14:10:35.781Z,10.13
2023-01-05T14:13:07.004Z,9.23
2023-01-05T14:15:39.959Z,9.00
2023-01-05T14:18:10.784Z,9.57
2023-01-05T14:20:44.786Z,8.57
2023-01-05T14:23:46.788Z,8.30
2023-01-05T14:26:15.120Z,8.70
2023-01-05T14:28:49.329Z,9.20
2023-01-05T14:31:48.863Z,9.13
2023-01-05T14:34:24.426Z,9.70
2023-01-05T14:37:06.926Z,8.47
2023-01-05T14:39:44.821Z,8.87
2023-01-05T14:42:31.362Z,9.40
2023-01-05T14:45:02.491Z,13.73
2023-01-05T14:47:37.199Z,15.07
2023-01-05T14:50:08.987Z,13.87
2023-01-05T14:52:58.264Z,16.87
2023-01-05T14:55:44.688Z,16.37
2023-01-05T14:58:15.931Z,16.67
2023-01-05T15:00:53.065Z,18.97
2023-01-05T15:03:28.586Z,20.63
2023-01-05T15:06:10.342Z,20.37
2023-01-05T15:09:13.546Z,21.03
2023-01-05T15:12:10.142Z,22.63
2023-01-05T15:15:06.699Z,23.90
2023-01-05T15:18:07.686Z,24.87
2023-01-05T15:21:17.421Z,27.70
2023-01-05T15:24:19.735Z,28.77
2023-01-05T15:27:17.345Z,25.27
2023-01-05T15:30:00.009Z,23.13
2023-01-05T15:32:31.397Z,23.93
2023-01-05T15:35:09.877Z,23.77
2023-01-05T15:37:40.009Z,21.57
2023-01-05T15:40:28.882Z,20.50
2023-01-05T15:43:00.606Z,19.67
2023-01-05T15:45:31.402Z,18.83
2023-01-05T15:48:03.226Z,18.13
2023-01-05T15:50:38.593Z,17.33
2023-01-05T15:53:07.351Z,15.43
2023-01-05T15:55:37.805Z,14.87
2023-01-05T15:58:16.548Z,14.30
2023-01-05T16:00:45.009Z,16.00
2023-01-05T16:03:23.588Z,21.33
2023-01-05T16:05:58.568Z,30.47
2023-01-05T16:08:27.630Z,35.30
2023-01-05T16:11:00.798Z,29.67
2023-01-05T16:13:34.046Z,27.77
2023-01-05T16:16:06.815Z,26.50
2023-01-05T16:18:40.907Z,25.83
2023-01-05T16:21:22.293Z,27.40
2023-01-05T16:23:54.394Z,26.67
2023-01-05T16:26:24.917Z,24.17
2023-01-05T16:28:53.375Z,22.83
2023-01-05T16:31:29.992Z,22.90
2023-01-05T16:34:16.342Z,21.63
2023-01-05T16:37:00.573Z,19.97
2023-01-05T16:39:34.208Z,19.93
2023-01-05T16:42:40.064Z,22.40
2023-01-05T16:45:11.258Z,24.43
2023-01-05T16:47:42.050Z,30.43
2023-01-05T16:51:01.421Z,42.73
2023-01-05T16:53:29.890Z,42.03
2023-01-05T16:56:00.771Z,38.53
2023-01-05T16:58:38.660Z,39.27
2023-01-05T17:01:20.047Z,46.57
2023-01-05T17:03:49.011Z,42.27
2023-01-05T17:06:26.271Z,38.57
2023-01-05T17:11:41.896Z,35.73
2023-01-05T17:14:14.164Z,30.77
2023-01-05T17:16:42.611Z,31.37
2023-01-05T17:19:14.290Z,30.67
2023-01-05T17:21:44.911Z,33.37
2023-01-05T17:24:14.757Z,36.53
2023-01-05T17:26:45.482Z,36.27
2023-01-05T17:29:21.473Z,38.20
2023-01-05T17:31:50.113Z,38.40
2023-01-05T17:34:18.969Z,36.27
2023-01-05T17:36:48.504Z,34.03
2023-01-05T17:39:17.433Z,34.03
2023-01-05T17:41:46.171Z,39.20
2023-01-05T17:44:14.622Z,39.40
2023-01-05T17:46:46.096Z,39.47
2023-01-05T17:49:16.026Z,34.40
2023-01-05T17:51:44.595Z,34.57
2023-01-05T17:54:12.997Z,31.83
2023-01-05T17:56:41.361Z,28.93
2023-01-05T17:59:09.694Z,31.53
2023-01-05T18:01:38.479Z,32.13
2023-01-05T18:04:19.110Z,38.70
2023-01-05T18:09:21.165Z,42.13
2023-01-05T18:11:50.800Z,36.70
2023-01-05T18:14:20.819Z,34.53
2023-01-05T18:16:49.243Z,34.23
2023-01-05T18:19:21.863Z,31.63
2023-01-05T18:21:53.810Z,23.73
2023-01-05T18:24:22.109Z,19.47
2023-01-05T18:26:55.642Z,23.20
2023-01-05T18:29:24.556Z,25.83
2023-01-05T18:31:54.413Z,23.07
2023-01-05T18:34:24.139Z,19.73
2023-01-05T18:36:58.393Z,17.20
2023-01-05T18:39:34.373Z,14.83
2023-01-05T18:42:02.696Z,13.93
2023-01-05T18:44:31.272Z,14.43
2023-01-05T18:46:59.529Z,13.60
2023-01-05T18:49:29.599Z,13.53
2023-01-05T18:51:58.018Z,14.47
2023-01-05T18:54:26.296Z,15.07
2023-01-05T18:56:54.772Z,14.73
2023-01-05T18:59:23.419Z,15.63
2023-01-05T19:01:51.802Z,15.80
2023-01-05T19:04:20.308Z,13.87
2023-01-05T19:06:50.080Z,18.33
2023-01-05T19:09:18.486Z,22.20
2023-01-05T19:11:48.618Z,18.17
2023-01-05T19:14:18.096Z,19.40
2023-01-05T19:16:47.261Z,19.87
2023-01-05T19:19:16.030Z,25.53
2023-01-05T19:21:46.238Z,36.00
2023-01-05T19:24:18.786Z,36.47
2023-01-05T19:26:48.101Z,37.50
2023-01-05T19:29:17.194Z,37.37
2023-01-05T19:31:46.063Z,37.87
2023-01-05T19:34:14.928Z,38.53
2023-01-05T19:36:43.217Z,50.83
2023-01-05T19:39:14.261Z,59.07
2023-01-05T19:41:46.890Z,50.67
2023-01-05T19:44:19.159Z,43.63
2023-01-05T19:46:49.340Z,40.27
2023-01-05T19:49:20.297Z,36.13
2023-01-05T19:51:49.225Z,34.93
2023-01-05T19:54:18.434Z,28.77
2023-01-05T19:56:48.196Z,26.07
2023-01-05T19:59:19.090Z,22.20
2023-01-05T20:01:47.618Z,25.00
2023-01-05T20:04:16.302Z,25.43
2023-01-05T20:06:46.681Z,26.97
2023-01-05T20:09:17.157Z,27.97
2023-01-05T20:11:49.020Z,28.27
2023-01-05T20:14:19.414Z,30.90
2023-01-05T20:16:50.280Z,31.63
2023-01-05T20:19:19.659Z,29.43
2023-01-05T20:21:48.480Z,30.93
2023-01-05T20:24:19.297Z,30.80
2023-01-05T20:26:50.977Z,29.93
2023-01-05T20:29:20.807Z,32.00
2023-01-05T20:31:54.661Z,32.97
2023-01-05T20:34:25.430Z,30.93
2023-01-05T20:36:53.729Z,27.77
2023-01-05T20:39:25.459Z,23.37
2023-01-05T20:42:05.590Z,21.70
2023-01-05T20:44:36.965Z,20.40
2023-01-05T20:47:06.868Z,19.87
2023-01-05T20:49:35.874Z,21.60
2023-01-05T20:52:05.006Z,18.97
2023-01-05T20:54:33.443Z,18.53
2023-01-05T20:57:03.292Z,17.60
2023-01-05T20:59:34.927Z,17.17
2023-01-05T21:02:12.355Z,18.60
2023-01-05T21:04:46.638Z,20.43
2023-01-05T21:07:15.178Z,20.80
2023-01-05T21:09:43.703Z,18.43
2023-01-05T21:12:13.618Z,18.63
2023-01-05T21:14:41.985Z,15.70
2023-01-05T21:17:10.694Z,15.07
2023-01-05T21:19:39.396Z,15.53
2023-01-05T21:22:08.636Z,15.10
2023-01-05T21:24:37.247Z,14.87
2023-01-05T21:27:05.800Z,14.90
2023-01-05T21:29:35.749Z,12.57
2023-01-05T21:32:04.203Z,12.23
2023-01-05T21:34:32.558Z,12.93
2023-01-05T21:37:00.877Z,12.27
2023-01-05T21:39:29.497Z,12.17
2023-01-05T21:42:15.295Z,15.57
2023-01-05T21:44:45.070Z,14.43
2023-01-05T21:47:14.224Z,12.53
2023-01-05T21:49:42.613Z,11.37
2023-01-05T21:52:29.447Z,11.77
2023-01-05T21:55:18.361Z,11.93
2023-01-05T21:57:46.767Z,12.33
2023-01-05T22:00:17.994Z,12.40
2023-01-05T22:02:46.364Z,12.53
2023-01-05T22:05:18.089Z,13.00
2023-01-05T22:07:48.411Z,13.43
2023-01-05T22:10:18.339Z,14.77
2023-01-05T22:12:47.707Z,11.93
2023-01-05T22:15:18.624Z,11.50
2023-01-05T22:17:49.212Z,11.97
2023-01-05T22:20:18.268Z,10.60
2023-01-05T22:22:46.578Z,10.60
2023-01-05T22:25:15.556Z,10.27
2023-01-05T22:27:43.932Z,10.03
2023-01-05T22:30:13.242Z,9.80
2023-01-05T22:32:43.031Z,10.43
2023-01-05T22:35:11.533Z,11.83
2023-01-05T22:37:40.076Z,11.03
2023-01-05T22:40:11.214Z,11.90
2023-01-05T22:42:39.862Z,9.97
2023-01-05T22:45:10.458Z,11.63
2023-01-05T22:47:38.873Z,10.30
2023-01-05T22:50:09.243Z,9.77
2023-01-05T22:52:37.576Z,9.60
2023-01-05T22:55:06.945Z,10.00
2023-01-05T22:57:35.300Z,10.50
2023-01-05T23:00:03.972Z,10.13
2023-01-05T23:02:32.433Z,10.83
2023-01-05T23:05:02.463Z,10.83
2023-01-05T23:07:33.481Z,11.73
2023-01-05T23:10:01.865Z,10.70
2023-01-05T23:12:30.266Z,10.13
2023-01-05T23:14:58.668Z,10.17
2023-01-05T23:17:27.002Z,11.60
2023-01-05T23:19:55.310Z,10.33
2023-01-05T23:22:23.859Z,10.10
2023-01-05T23:24:53.544Z,9.73
2023-01-05T23:27:21.814Z,14.00
2023-01-05T23:29:50.253Z,10.67
2023-01-05T23:32:18.550Z,10.97
2023-01-05T23:34:47.052Z,9.93
2023-01-05T23:37:15.387Z,11.00
2023-01-05T23:39:43.735Z,10.50
2023-01-05T23:42:33.468Z,9.83
2023-01-05T23:45:01.831Z,8.80
2023-01-05T23:47:30.100Z,9.30
2023-01-05T23:49:58.370Z,9.10
2023-01-05T23:52:26.771Z,9.30
2023-01-05T23:54:55.094Z,9.87
2023-01-05T23:57:24.819Z,8.83
2023-01-05T23:59:53.100Z,8.57
